createdAt,value
2019-02-28T00:14:04.419Z,4.90
2019-02-28T00:22:55.459Z,4.60
2019-02-28T00:31:25.913Z,4.60
2019-02-28T00:37:09.601Z,4.60
2019-02-28T00:42:53.286Z,4.60
2019-02-28T00:45:21.866Z,4.50
2019-02-28T00:48:09.756Z,4.50
2019-02-28T00:56:40.270Z,4.40
2019-02-28T01:41:25.721Z,3.70
2019-02-28T01:47:32.013Z,3.60
2019-02-28T02:04:47.378Z,3.60
2019-02-28T02:07:33.351Z,3.60
2019-02-28T02:18:43.492Z,3.50
2019-02-28T02:24:06.054Z,3.50
2019-02-28T02:26:34.644Z,3.40
2019-02-28T02:32:00.976Z,3.30
2019-02-28T02:40:47.127Z,3.30
2019-02-28T02:46:07.789Z,3.20
2019-02-28T02:48:38.531Z,3.10
2019-02-28T02:51:10.658Z,3.10
2019-02-28T03:05:42.635Z,3.20
2019-02-28T03:08:35.725Z,3.10
2019-02-28T03:11:00.862Z,3.10
2019-02-28T03:16:33.033Z,2.80
2019-02-28T03:19:02.244Z,2.70
2019-02-28T03:21:30.862Z,2.70
2019-02-28T03:23:59.437Z,2.60
2019-02-28T03:26:28.097Z,2.60
2019-02-28T03:28:56.623Z,2.60
2019-02-28T03:31:25.284Z,2.70
2019-02-28T03:36:55.506Z,2.80
2019-02-28T03:39:24.093Z,2.90
2019-02-28T03:41:53.008Z,3.00
2019-02-28T03:44:21.894Z,3.00
2019-02-28T03:46:51.000Z,2.90
2019-02-28T03:52:15.358Z,2.80
2019-02-28T03:57:37.823Z,2.80
2019-02-28T04:00:17.879Z,2.80
2019-02-28T04:03:05.910Z,2.80
2019-02-28T04:05:34.478Z,2.70
2019-02-28T04:08:29.382Z,2.70
2019-02-28T04:10:54.740Z,2.60
2019-02-28T04:13:42.206Z,2.60
2019-02-28T04:16:30.094Z,2.60
2019-02-28T04:18:58.693Z,2.60
2019-02-28T04:21:27.260Z,2.60
2019-02-28T04:24:15.204Z,2.60
2019-02-28T04:26:43.760Z,2.60
2019-02-28T04:29:12.380Z,2.50
2019-02-28T04:31:40.968Z,2.50
2019-02-28T04:34:12.981Z,2.60
2019-02-28T04:36:39.783Z,2.60
2019-02-28T04:39:27.698Z,2.50
2019-02-28T04:41:56.308Z,2.40
2019-02-28T04:44:24.887Z,2.40
2019-02-28T04:46:53.470Z,2.40
2019-02-28T04:49:41.471Z,2.40
2019-02-28T04:52:11.826Z,2.40
2019-02-28T04:54:40.325Z,2.40
2019-02-28T04:57:08.891Z,2.30
2019-02-28T04:59:37.565Z,2.20
2019-02-28T05:02:06.138Z,2.20
2019-02-28T05:04:36.164Z,2.20
2019-02-28T05:07:05.078Z,2.20
2019-02-28T05:09:53.012Z,2.20
2019-02-28T05:12:21.604Z,2.20
2019-02-28T05:15:11.068Z,2.30
2019-02-28T05:17:39.671Z,2.40
2019-02-28T05:20:10.746Z,2.50
2019-02-28T05:22:40.086Z,2.50
2019-02-28T05:25:30.266Z,2.40
2019-02-28T05:27:58.882Z,2.20
2019-02-28T05:30:27.426Z,2.00
2019-02-28T05:32:56.090Z,2.00
2019-02-28T05:35:26.635Z,2.00
2019-02-28T05:37:54.915Z,2.10
2019-02-28T05:40:23.475Z,2.20
2019-02-28T05:43:11.519Z,2.30
2019-02-28T05:45:40.123Z,2.30
2019-02-28T05:48:28.133Z,2.30
2019-02-28T05:50:56.702Z,2.10
2019-02-28T05:53:25.380Z,1.90
2019-02-28T05:55:58.816Z,1.80
2019-02-28T05:58:43.625Z,1.70
2019-02-28T06:01:12.572Z,1.60
2019-02-28T06:03:41.233Z,1.50
2019-02-28T06:06:09.825Z,1.50
2019-02-28T06:08:39.211Z,1.60
2019-02-28T06:11:08.456Z,1.50
2019-02-28T06:13:37.223Z,1.50
2019-02-28T06:16:11.319Z,1.60
2019-02-28T06:18:36.166Z,1.70
2019-02-28T06:21:04.718Z,1.80
2019-02-28T06:23:33.356Z,1.80
2019-02-28T06:26:02.047Z,1.80
2019-02-28T06:28:31.023Z,1.80
2019-02-28T06:31:00.541Z,1.80
2019-02-28T06:33:30.535Z,1.80
2019-02-28T06:35:59.581Z,1.80
2019-02-28T06:38:28.196Z,1.80
2019-02-28T06:40:56.770Z,1.80
2019-02-28T06:43:25.367Z,1.80
2019-02-28T06:48:41.273Z,1.90
2019-02-28T06:51:09.852Z,1.90
2019-02-28T06:53:39.599Z,1.90
2019-02-28T06:56:08.198Z,1.90
2019-02-28T06:58:36.780Z,2.00
2019-02-28T07:01:05.428Z,2.10
2019-02-28T07:03:35.221Z,2.20
2019-02-28T07:06:04.671Z,2.20
2019-02-28T07:08:33.346Z,2.40
2019-02-28T07:11:01.920Z,2.50
2019-02-28T07:13:49.859Z,2.60
2019-02-28T07:16:18.434Z,2.80
2019-02-28T07:18:47.044Z,3.10
2019-02-28T07:21:15.609Z,3.20
2019-02-28T07:24:03.796Z,3.30
2019-02-28T07:26:53.024Z,3.50
2019-02-28T07:29:22.054Z,3.70
2019-02-28T07:32:10.031Z,3.90
2019-02-28T07:34:58.886Z,4.00
2019-02-28T07:37:53.347Z,4.10
2019-02-28T07:40:37.106Z,4.30
2019-02-28T07:43:25.018Z,4.30
2019-02-28T07:46:08.908Z,4.30
2019-02-28T07:48:53.094Z,4.40
2019-02-28T07:54:24.960Z,4.60
2019-02-28T07:59:57.604Z,5.20
2019-02-28T08:05:30.939Z,5.70
2019-02-28T08:11:03.495Z,6.10
2019-02-28T08:16:33.789Z,6.60
2019-02-28T08:19:12.686Z,6.90
2019-02-28T08:24:40.475Z,7.10
2019-02-28T08:27:18.866Z,7.40
2019-02-28T08:30:26.143Z,7.70
2019-02-28T08:33:16.277Z,8.00
2019-02-28T08:36:05.391Z,8.40
2019-02-28T08:38:53.174Z,8.80
2019-02-28T08:41:41.090Z,9.00
2019-02-28T08:44:29.016Z,9.40
2019-02-28T08:47:07.378Z,9.70
2019-02-28T08:49:55.294Z,9.80
2019-02-28T08:52:43.363Z,10.40
2019-02-28T08:55:31.278Z,10.70
2019-02-28T08:58:19.171Z,11.20
2019-02-28T09:01:07.167Z,11.50
2019-02-28T09:03:55.056Z,12.00
2019-02-28T09:06:42.990Z,12.00
2019-02-28T09:09:31.659Z,11.90
2019-02-28T09:12:20.564Z,12.20
2019-02-28T09:18:22.798Z,11.90
2019-02-28T09:21:10.722Z,12.40
2019-02-28T09:23:58.613Z,12.90
2019-02-28T09:26:46.527Z,13.20
2019-02-28T09:29:34.418Z,13.80
2019-02-28T09:35:36.743Z,14.20
2019-02-28T09:38:24.637Z,13.90
2019-02-28T09:41:12.554Z,14.00
2019-02-28T09:44:00.436Z,14.10
2019-02-28T09:46:41.273Z,14.50
2019-02-28T09:49:21.545Z,15.20
2019-02-28T09:52:00.122Z,15.80
2019-02-28T09:54:48.018Z,16.00
2019-02-28T09:57:35.944Z,15.20
2019-02-28T10:03:52.230Z,16.70
2019-02-28T10:06:41.066Z,17.50
2019-02-28T10:09:28.950Z,18.20
2019-02-28T10:12:16.793Z,17.20
2019-02-28T10:18:35.409Z,16.30
2019-02-28T10:21:21.906Z,15.50
2019-02-28T10:24:09.821Z,14.90
2019-02-28T10:26:57.748Z,14.80
2019-02-28T10:29:45.638Z,14.60
2019-02-28T10:32:33.482Z,14.00
2019-02-28T10:35:21.449Z,14.00
2019-02-28T10:38:09.370Z,14.00
2019-02-28T10:40:57.265Z,14.50
2019-02-28T10:43:49.344Z,15.20
2019-02-28T10:46:27.953Z,15.60
2019-02-28T10:49:08.765Z,15.30
2019-02-28T10:51:50.344Z,15.00
2019-02-28T10:54:28.915Z,14.70
2019-02-28T10:57:16.810Z,15.80
2019-02-28T11:03:18.794Z,16.50
2019-02-28T11:06:06.703Z,17.30
2019-02-28T11:08:54.611Z,17.80
2019-02-28T11:11:45.475Z,17.90
2019-02-28T11:14:32.060Z,18.50
2019-02-28T11:17:19.942Z,18.50
2019-02-28T11:20:27.212Z,18.70
2019-02-28T11:23:15.899Z,18.90
2019-02-28T11:26:06.541Z,19.20
2019-02-28T11:28:54.466Z,18.70
2019-02-28T11:31:42.427Z,19.60
2019-02-28T11:34:30.407Z,19.80
2019-02-28T11:37:18.302Z,19.30
2019-02-28T11:43:40.601Z,21.30
2019-02-28T11:46:21.155Z,20.80
2019-02-28T11:49:01.777Z,20.90
2019-02-28T11:51:42.470Z,20.00
2019-02-28T11:54:12.233Z,20.20
2019-02-28T11:57:03.112Z,19.50
2019-02-28T11:59:50.179Z,19.80
2019-02-28T12:02:38.065Z,19.90
2019-02-28T12:05:26.167Z,19.60
2019-02-28T12:08:14.148Z,20.20
2019-02-28T12:13:56.102Z,20.90
2019-02-28T12:16:44.099Z,20.90
2019-02-28T12:19:32.043Z,21.40
2019-02-28T12:22:20.220Z,21.10
2019-02-28T12:25:28.851Z,20.90
2019-02-28T12:28:16.743Z,20.40
2019-02-28T12:31:04.747Z,21.00
2019-02-28T12:36:49.438Z,21.90
2019-02-28T12:39:38.015Z,21.50
2019-02-28T12:42:25.910Z,21.50
2019-02-28T12:48:20.783Z,21.40
2019-02-28T12:51:05.185Z,21.40
2019-02-28T12:56:28.630Z,22.20
2019-02-28T13:01:58.324Z,21.30
2019-02-28T13:04:39.103Z,21.40
2019-02-28T13:07:20.043Z,21.60
2019-02-28T13:10:00.668Z,21.20
2019-02-28T13:12:44.071Z,21.30
2019-02-28T13:15:24.661Z,21.00
2019-02-28T13:18:09.033Z,21.60
2019-02-28T13:20:49.467Z,21.70
2019-02-28T13:23:33.023Z,22.20
2019-02-28T13:26:12.593Z,22.40
2019-02-28T13:28:50.985Z,21.60
2019-02-28T13:31:38.907Z,21.30
2019-02-28T13:34:29.072Z,20.70
2019-02-28T13:37:16.345Z,21.20
2019-02-28T13:43:32.161Z,21.20
2019-02-28T13:46:14.053Z,21.10
2019-02-28T13:48:54.699Z,21.70
2019-02-28T13:51:40.457Z,21.80
2019-02-28T13:54:18.432Z,21.30
2019-02-28T13:56:59.056Z,21.00
2019-02-28T13:59:28.428Z,21.80
2019-02-28T14:02:17.229Z,22.70
2019-02-28T14:08:32.747Z,22.40
2019-02-28T14:11:20.740Z,22.30
2019-02-28T14:14:08.723Z,21.30
2019-02-28T14:16:58.382Z,21.40
2019-02-28T14:19:46.268Z,22.40
2019-02-28T14:22:34.198Z,21.40
2019-02-28T14:28:32.364Z,23.20
2019-02-28T14:31:20.443Z,22.10
2019-02-28T14:34:08.359Z,21.70
2019-02-28T14:36:56.291Z,21.40
2019-02-28T14:39:44.178Z,22.30
2019-02-28T14:42:32.022Z,21.80
2019-02-28T14:48:40.786Z,21.30
2019-02-28T14:51:19.063Z,21.20
2019-02-28T14:54:06.979Z,20.10
2019-02-28T14:56:54.894Z,18.50
2019-02-28T15:02:33.087Z,17.00
2019-02-28T15:05:21.688Z,16.90
2019-02-28T15:08:11.958Z,16.40
2019-02-28T15:11:00.250Z,15.80
2019-02-28T15:13:48.169Z,15.40
2019-02-28T15:16:36.061Z,15.20
2019-02-28T15:19:24.437Z,15.00
2019-02-28T15:22:14.255Z,14.80
2019-02-28T15:28:30.683Z,14.70
2019-02-28T15:31:18.580Z,14.40
2019-02-28T15:34:06.496Z,14.20
2019-02-28T15:36:55.636Z,14.30
2019-02-28T15:39:43.950Z,14.20
2019-02-28T15:42:31.945Z,13.90
2019-02-28T15:45:19.909Z,13.70
2019-02-28T15:48:01.009Z,13.40
2019-02-28T15:50:39.315Z,13.30
2019-02-28T15:53:27.294Z,13.30
2019-02-28T15:56:19.557Z,13.30
2019-02-28T15:59:04.811Z,13.10
2019-02-28T16:01:52.765Z,12.90
2019-02-28T16:11:09.371Z,12.80
2019-02-28T16:13:57.510Z,12.50
2019-02-28T16:16:46.739Z,12.30
2019-02-28T16:19:34.651Z,12.20
2019-02-28T16:22:22.539Z,12.20
2019-02-28T16:28:25.020Z,12.00
2019-02-28T16:31:12.975Z,12.10
2019-02-28T16:34:08.127Z,11.90
2019-02-28T16:36:50.433Z,11.80
2019-02-28T16:39:38.423Z,11.80
2019-02-28T16:45:54.141Z,11.80
2019-02-28T16:48:42.010Z,11.80
2019-02-28T16:51:30.262Z,11.60
2019-02-28T16:54:22.432Z,11.60
2019-02-28T16:57:09.461Z,11.60
2019-02-28T16:59:58.578Z,11.60
2019-02-28T17:02:46.394Z,11.50
2019-02-28T17:05:34.386Z,11.50
2019-02-28T17:08:22.198Z,11.50
2019-02-28T17:11:10.186Z,11.50
2019-02-28T17:17:25.990Z,11.40
2019-02-28T17:20:13.999Z,11.50
2019-02-28T17:23:02.189Z,11.40
2019-02-28T17:25:53.506Z,11.40
2019-02-28T17:31:49.693Z,11.40
2019-02-28T17:34:37.581Z,11.40
2019-02-28T17:37:26.646Z,11.50
2019-02-28T17:40:15.209Z,11.40
2019-02-28T17:43:03.126Z,11.40
2019-02-28T17:45:51.510Z,11.30
2019-02-28T17:48:59.913Z,11.20
2019-02-28T17:55:21.014Z,11.20
2019-02-28T18:01:42.451Z,11.20
2019-02-28T18:04:49.674Z,11.20
2019-02-28T18:17:40.046Z,11.10
2019-02-28T18:20:47.268Z,11.10
2019-02-28T18:23:54.594Z,11.10
2019-02-28T18:30:15.705Z,11.00
2019-02-28T18:33:06.766Z,11.00
2019-02-28T18:35:53.346Z,11.10
2019-02-28T18:38:41.271Z,11.00
2019-02-28T18:41:29.186Z,11.00
2019-02-28T18:44:17.151Z,11.00
2019-02-28T18:46:57.481Z,10.80
2019-02-28T18:49:35.799Z,10.90
2019-02-28T18:52:23.695Z,10.90
2019-02-28T18:55:11.591Z,10.80
2019-02-28T18:58:01.366Z,10.90
2019-02-28T19:00:29.843Z,10.80
2019-02-28T19:03:17.746Z,10.80
2019-02-28T19:06:05.702Z,10.70
2019-02-28T19:08:53.618Z,10.70
2019-02-28T19:11:41.506Z,10.70
2019-02-28T19:14:29.425Z,10.70
2019-02-28T19:17:17.355Z,10.70
2019-02-28T19:20:24.568Z,10.70
2019-02-28T19:22:53.141Z,10.70
2019-02-28T19:25:40.962Z,10.70
2019-02-28T19:28:28.951Z,10.70
2019-02-28T19:31:16.844Z,10.70
2019-02-28T19:34:04.832Z,10.60
2019-02-28T19:36:52.798Z,10.60
2019-02-28T19:39:40.718Z,10.60
2019-02-28T19:42:28.627Z,10.60
2019-02-28T19:45:36.064Z,10.50
2019-02-28T19:48:16.794Z,10.50
2019-02-28T19:50:57.280Z,10.50
2019-02-28T19:53:37.722Z,10.50
2019-02-28T19:56:06.419Z,10.50
2019-02-28T19:58:54.340Z,10.50
2019-02-28T20:01:42.222Z,10.40
2019-02-28T20:04:30.145Z,10.50
2019-02-28T20:07:18.039Z,10.40
2019-02-28T20:13:20.019Z,10.40
2019-02-28T20:16:07.855Z,10.40
2019-02-28T20:18:55.819Z,10.40
2019-02-28T20:21:43.655Z,10.40
2019-02-28T20:24:31.574Z,10.40
2019-02-28T20:27:19.546Z,10.40
2019-02-28T20:33:21.731Z,10.40
2019-02-28T20:36:09.710Z,10.40
2019-02-28T20:38:57.594Z,10.30
2019-02-28T20:41:45.582Z,10.30
2019-02-28T20:44:33.525Z,10.30
2019-02-28T20:47:14.724Z,10.30
2019-02-28T20:49:55.650Z,10.30
2019-02-28T20:52:36.189Z,10.40
2019-02-28T20:55:16.970Z,10.30
2019-02-28T20:57:58.014Z,10.30
2019-02-28T21:00:39.031Z,10.20
2019-02-28T21:03:19.632Z,10.20
2019-02-28T21:06:00.077Z,10.20
2019-02-28T21:08:40.874Z,10.20
2019-02-28T21:11:21.298Z,10.10
2019-02-28T21:14:00.132Z,10.10
2019-02-28T21:16:48.043Z,10.10
2019-02-28T21:19:35.934Z,10.10
2019-02-28T21:22:23.862Z,10.00
2019-02-28T21:28:25.672Z,10.10
2019-02-28T21:31:13.586Z,10.10
2019-02-28T21:34:01.491Z,10.10
2019-02-28T21:36:30.128Z,10.10
2019-02-28T21:42:07.828Z,10.00
2019-02-28T21:47:38.281Z,10.10
2019-02-28T21:52:50.358Z,10.00
2019-02-28T21:55:38.236Z,9.80
2019-02-28T22:01:05.587Z,9.60
2019-02-28T22:06:49.271Z,9.30
2019-02-28T22:12:29.447Z,9.20
2019-02-28T22:15:36.668Z,9.10
2019-02-28T22:18:05.261Z,9.10
2019-02-28T22:20:33.811Z,8.90
2019-02-28T22:29:19.311Z,9.10
2019-02-28T22:37:46.666Z,9.00
2019-02-28T22:43:09.033Z,9.00
2019-02-28T22:45:56.923Z,9.10
2019-02-28T22:48:44.835Z,9.10
2019-02-28T22:51:32.746Z,9.10
2019-02-28T22:54:20.657Z,9.10
2019-02-28T22:57:08.645Z,9.10
2019-02-28T22:59:56.505Z,9.10
2019-02-28T23:05:41.151Z,9.10
2019-02-28T23:08:29.139Z,9.00
2019-02-28T23:13:53.551Z,9.00
2019-02-28T23:16:41.430Z,9.10
2019-02-28T23:19:29.355Z,9.10
2019-02-28T23:22:17.312Z,9.00
2019-02-28T23:28:38.967Z,9.00
2019-02-28T23:31:46.211Z,9.10
2019-02-28T23:37:48.460Z,9.10
2019-02-28T23:40:36.547Z,9.00
2019-02-28T23:43:05.313Z,9.00
2019-02-28T23:45:53.296Z,8.90
2019-02-28T23:48:42.441Z,8.90
2019-02-28T23:51:30.778Z,9.00
2019-02-28T23:57:21.248Z,9.00
